Time;durP1;ratioP1;P1;durP2;ratioP2;P2;SDS_P1;SDS_P2;PMS_P1;PMS_P2;Temp;Humidity;BMP_temperature;BMP_pressure;BME280_temperature;BME280_humidity;BME280_pressure;Samples;Min_cycle;Max_cycle;Signal;HPM_P1;HPM_P2
2021/07/31 00:01:38;;;;;;;9.27;2.40;;;15.70;99.90;;;;;;5094052;28;20106;-55
2021/07/31 00:04:05;;;;;;;7.50;2.20;;;15.70;99.90;;;;;;5094560;28;20173;-56
2021/07/31 00:06:31;;;;;;;8.88;2.22;;;15.70;99.90;;;;;;5094424;28;20317;-56
2021/07/31 00:08:57;;;;;;;4.35;2.38;;;15.70;99.90;;;;;;5094336;28;20052;-55
2021/07/31 00:11:23;;;;;;;6.75;2.13;;;15.70;99.90;;;;;;5094399;28;20489;-55
2021/07/31 00:13:49;;;;;;;3.65;2.05;;;15.70;99.90;;;;;;5094898;28;20489;-55
2021/07/31 00:16:15;;;;;;;7.15;1.98;;;15.70;99.90;;;;;;5094466;28;20385;-55
2021/07/31 00:18:41;;;;;;;8.77;2.22;;;15.70;99.90;;;;;;5093888;28;20390;-55
2021/07/31 00:21:08;;;;;;;5.50;2.50;;;15.70;99.90;;;;;;5094065;28;20043;-55
2021/07/31 00:23:34;;;;;;;5.22;2.10;;;15.70;99.90;;;;;;5093999;28;20046;-55
2021/07/31 00:25:59;;;;;;;9.18;2.38;;;15.70;99.90;;;;;;5094098;28;20044;-55
2021/07/31 00:28:25;;;;;;;6.65;2.63;;;15.80;99.90;;;;;;5093849;28;20051;-55
2021/07/31 00:30:52;;;;;;;7.03;2.72;;;15.70;99.90;;;;;;5093912;28;20062;-55
2021/07/31 00:33:17;;;;;;;8.93;3.33;;;15.70;99.90;;;;;;5093991;28;20097;-55
2021/07/31 00:35:43;;;;;;;9.07;2.65;;;15.60;99.90;;;;;;5093630;28;20044;-55
2021/07/31 00:38:09;;;;;;;7.90;3.45;;;15.70;99.90;;;;;;5093681;28;20043;-55
2021/07/31 00:40:35;;;;;;;6.90;2.90;;;15.60;99.90;;;;;;5093610;28;20051;-55
2021/07/31 00:43:08;;;;;;;7.07;2.70;;;15.50;99.90;;;;;;5093607;28;20044;-55
2021/07/31 00:45:35;;;;;;;6.88;2.25;;;15.60;99.90;;;;;;5093763;28;20044;-55
2021/07/31 00:48:01;;;;;;;11.07;3.45;;;15.60;99.90;;;;;;5093438;28;20043;-55
2021/07/31 00:50:28;;;;;;;13.48;3.50;;;15.60;99.90;;;;;;5093523;28;20071;-55
2021/07/31 00:52:55;;;;;;;10.15;3.17;;;15.50;99.90;;;;;;5093239;28;20494;-55
2021/07/31 00:55:24;;;;;;;7.32;3.08;;;15.50;99.90;;;;;;5093287;28;20086;-55
2021/07/31 00:57:50;;;;;;;5.78;3.03;;;15.50;99.90;;;;;;5093269;28;20036;-55
2021/07/31 01:00:16;;;;;;;6.78;3.35;;;15.50;99.90;;;;;;5093284;28;20123;-55
2021/07/31 01:02:42;;;;;;;12.68;3.78;;;15.50;99.90;;;;;;5093254;28;20055;-55
2021/07/31 01:05:08;;;;;;;7.88;2.97;;;15.50;99.90;;;;;;5093200;28;20040;-55
2021/07/31 01:07:37;;;;;;;8.32;3.58;;;15.50;99.90;;;;;;5093111;28;20048;-55
2021/07/31 01:10:04;;;;;;;7.13;3.30;;;15.50;99.90;;;;;;5092976;28;20051;-55
2021/07/31 01:12:32;;;;;;;7.97;3.03;;;15.50;99.90;;;;;;5093196;28;20044;-56
2021/07/31 01:14:58;;;;;;;6.75;3.28;;;15.40;99.90;;;;;;5074061;28;20055;-55
2021/07/31 01:17:23;;;;;;;10.90;3.35;;;15.50;99.90;;;;;;5093051;28;20044;-55
2021/07/31 01:19:49;;;;;;;11.65;3.42;;;15.50;99.90;;;;;;5092887;28;20474;-55
2021/07/31 01:22:15;;;;;;;12.65;3.60;;;15.50;99.90;;;;;;5092674;28;20513;-55
2021/07/31 01:24:41;;;;;;;10.32;4.20;;;15.40;99.90;;;;;;5093194;28;20070;-56
2021/07/31 01:27:06;;;;;;;13.75;3.97;;;15.40;99.90;;;;;;5092901;28;20048;-55
2021/07/31 01:29:32;;;;;;;10.00;4.13;;;15.40;99.90;;;;;;5092825;28;20048;-55
2021/07/31 01:31:58;;;;;;;7.78;4.15;;;15.40;99.90;;;;;;5092774;28;20048;-55
2021/07/31 01:34:24;;;;;;;15.18;4.57;;;15.40;99.90;;;;;;5092598;28;20408;-56
2021/07/31 01:36:50;;;;;;;10.40;3.55;;;15.30;99.90;;;;;;5092732;28;20166;-55
2021/07/31 01:39:15;;;;;;;12.35;4.45;;;15.40;99.90;;;;;;5092325;28;20047;-55
2021/07/31 01:41:42;;;;;;;11.45;4.25;;;15.40;99.90;;;;;;5092564;28;20039;-54
2021/07/31 01:44:08;;;;;;;10.75;4.35;;;15.30;99.90;;;;;;5092740;28;20048;-55
2021/07/31 01:46:34;;;;;;;10.82;4.97;;;15.30;99.90;;;;;;5092841;28;20040;-55
2021/07/31 01:48:59;;;;;;;16.10;4.88;;;15.30;99.90;;;;;;5092427;28;20101;-54
2021/07/31 01:51:28;;;;;;;12.35;4.65;;;15.30;99.90;;;;;;5092666;28;20051;-55
2021/07/31 01:53:55;;;;;;;17.50;4.47;;;15.30;99.90;;;;;;5092236;28;20055;-54
2021/07/31 01:56:21;;;;;;;12.45;4.85;;;15.40;99.90;;;;;;5092450;28;20543;-55
2021/07/31 01:58:46;;;;;;;11.65;4.53;;;15.40;99.90;;;;;;5092262;28;20383;-55
2021/07/31 02:01:12;;;;;;;9.93;4.43;;;15.30;99.90;;;;;;5092310;28;20505;-54
2021/07/31 02:03:38;;;;;;;12.52;4.82;;;15.40;99.90;;;;;;5092246;28;20046;-55
2021/07/31 02:06:04;;;;;;;7.95;4.43;;;15.30;99.90;;;;;;5092172;28;20489;-55
2021/07/31 02:08:31;;;;;;;11.57;4.45;;;15.30;99.90;;;;;;5092074;28;20131;-55
2021/07/31 02:10:57;;;;;;;11.70;5.30;;;15.30;99.90;;;;;;5091992;28;20438;-55
2021/07/31 02:13:23;;;;;;;12.32;4.95;;;15.30;99.90;;;;;;5090898;28;20118;-54
2021/07/31 02:15:50;;;;;;;12.23;5.30;;;15.30;99.90;;;;;;5092129;28;20173;-55
2021/07/31 02:18:16;;;;;;;11.55;4.97;;;15.30;99.90;;;;;;5092093;28;20138;-55
2021/07/31 02:20:43;;;;;;;11.32;5.40;;;15.40;99.90;;;;;;5091775;28;20046;-55
2021/07/31 02:23:09;;;;;;;11.45;5.78;;;15.40;99.90;;;;;;5091871;28;20044;-55
2021/07/31 02:25:35;;;;;;;10.88;5.35;;;15.40;99.90;;;;;;5091768;28;20375;-55
2021/07/31 02:28:00;;;;;;;19.50;5.72;;;15.40;99.90;;;;;;5091876;28;20478;-54
2021/07/31 02:30:26;;;;;;;10.05;4.60;;;15.40;99.90;;;;;;5091878;28;20127;-55
2021/07/31 02:32:52;;;;;;;11.35;5.10;;;15.30;99.90;;;;;;5091898;28;20068;-55
2021/07/31 02:35:18;;;;;;;13.68;5.55;;;15.40;99.90;;;;;;5091661;28;20558;-55
2021/07/31 02:37:44;;;;;;;14.65;5.30;;;15.40;99.90;;;;;;5091719;28;20040;-55
2021/07/31 02:40:10;;;;;;;10.80;5.53;;;15.40;99.90;;;;;;5091663;28;20051;-55
2021/07/31 02:42:36;;;;;;;12.15;5.53;;;15.40;99.90;;;;;;5091785;28;20044;-55
2021/07/31 02:45:04;;;;;;;12.98;6.22;;;15.40;99.90;;;;;;5091851;28;20047;-55
2021/07/31 02:47:32;;;;;;;13.30;5.72;;;15.40;99.90;;;;;;5091721;28;20089;-55
2021/07/31 02:49:57;;;;;;;13.68;6.20;;;15.40;99.90;;;;;;5091713;28;20044;-55
2021/07/31 02:52:23;;;;;;;12.95;6.05;;;15.40;99.90;;;;;;5091531;28;20127;-55
2021/07/31 02:54:50;;;;;;;11.15;6.28;;;15.40;99.90;;;;;;5091911;28;20506;-54
2021/07/31 02:57:16;;;;;;;13.93;7.00;;;15.40;99.90;;;;;;5091729;28;20579;-55
2021/07/31 02:59:41;;;;;;;11.35;5.82;;;15.40;99.90;;;;;;5091741;28;20044;-55
2021/07/31 03:02:07;;;;;;;10.65;6.80;;;15.40;99.90;;;;;;5091395;28;20402;-55
2021/07/31 03:04:33;;;;;;;12.63;7.03;;;15.40;99.90;;;;;;5091295;28;20047;-55
2021/07/31 03:06:59;;;;;;;12.25;7.63;;;15.30;99.90;;;;;;5091265;28;20036;-55
2021/07/31 03:09:25;;;;;;;11.75;7.18;;;15.30;99.90;;;;;;5091608;28;20051;-55
2021/07/31 03:11:52;;;;;;;16.10;7.32;;;15.40;99.90;;;;;;5091523;28;20055;-55
2021/07/31 03:14:18;;;;;;;14.25;7.78;;;15.30;99.90;;;;;;5091294;28;20484;-55
2021/07/31 03:16:43;;;;;;;12.02;6.60;;;15.40;99.90;;;;;;5091365;28;20055;-55
2021/07/31 03:19:09;;;;;;;13.25;6.72;;;15.40;99.90;;;;;;5091415;28;20051;-55
2021/07/31 03:21:35;;;;;;;15.20;6.95;;;15.30;99.90;;;;;;5091561;28;20043;-55
2021/07/31 03:24:01;;;;;;;16.02;7.97;;;15.30;99.90;;;;;;5091270;28;20058;-55
2021/07/31 03:26:28;;;;;;;20.13;8.32;;;15.30;99.90;;;;;;5091508;28;20040;-55
2021/07/31 03:28:54;;;;;;;15.45;7.30;;;15.30;99.90;;;;;;5091386;28;20125;-55
2021/07/31 03:31:20;;;;;;;15.10;7.60;;;15.30;99.90;;;;;;5091232;28;20111;-55
2021/07/31 03:33:46;;;;;;;12.18;7.03;;;15.30;99.90;;;;;;5091414;28;20111;-55
2021/07/31 03:36:12;;;;;;;14.23;7.65;;;15.30;99.90;;;;;;5091440;28;20119;-55
2021/07/31 03:38:38;;;;;;;14.50;7.60;;;15.30;99.90;;;;;;5094062;28;20054;-55
2021/07/31 03:41:03;;;;;;;13.95;7.13;;;15.30;99.90;;;;;;5094983;28;20126;-55
2021/07/31 03:43:29;;;;;;;14.35;7.40;;;15.40;99.90;;;;;;5094880;28;20052;-55
2021/07/31 03:45:55;;;;;;;17.30;6.78;;;15.30;99.90;;;;;;5094988;28;20043;-54
2021/07/31 03:48:21;;;;;;;14.65;6.82;;;15.30;99.90;;;;;;5094764;28;20538;-55
2021/07/31 03:50:47;;;;;;;11.40;5.38;;;15.30;99.90;;;;;;5094881;28;20504;-55
2021/07/31 03:53:12;;;;;;;12.35;6.07;;;15.30;99.90;;;;;;5094506;28;20052;-55
2021/07/31 03:55:48;;;;;;;17.98;6.78;;;15.40;99.90;;;;;;5094575;28;20375;-56
2021/07/31 03:58:14;;;;;;;13.05;6.82;;;15.40;99.90;;;;;;5094432;28;20044;-55
2021/07/31 04:00:41;;;;;;;15.98;6.63;;;15.40;99.90;;;;;;5094555;28;20131;-56
2021/07/31 04:03:10;;;;;;;12.80;6.00;;;15.40;99.90;;;;;;5094314;28;20153;-55
2021/07/31 04:05:39;;;;;;;11.77;5.95;;;15.40;99.90;;;;;;5094344;28;20032;-55
2021/07/31 04:08:06;;;;;;;17.20;6.47;;;15.40;99.90;;;;;;5094292;28;20485;-55
2021/07/31 04:10:32;;;;;;;15.05;5.88;;;15.40;99.90;;;;;;5094392;28;20400;-55
2021/07/31 04:12:59;;;;;;;15.10;6.15;;;15.40;99.90;;;;;;5094283;28;20245;-55
2021/07/31 04:15:24;;;;;;;13.30;5.80;;;15.40;99.90;;;;;;5094124;28;20561;-55
2021/07/31 04:17:50;;;;;;;14.00;6.18;;;15.40;99.90;;;;;;5094014;28;20044;-55
2021/07/31 04:20:19;;;;;;;15.13;6.22;;;15.40;99.90;;;;;;5094193;28;20036;-54
2021/07/31 04:22:47;;;;;;;16.70;5.75;;;15.40;99.90;;;;;;5094012;28;20044;-55
2021/07/31 04:25:13;;;;;;;18.98;6.88;;;15.40;99.90;;;;;;5094082;28;20051;-55
2021/07/31 04:27:39;;;;;;;16.90;5.47;;;15.50;99.90;;;;;;5094014;28;20040;-55
2021/07/31 04:30:06;;;;;;;9.45;5.53;;;15.40;99.90;;;;;;5093857;28;20086;-55
2021/07/31 04:32:35;;;;;;;13.70;6.00;;;15.40;99.90;;;;;;5093883;28;20101;-55
2021/07/31 04:35:14;;;;;;;13.50;5.63;;;15.40;99.90;;;;;;5092787;28;20044;-56
2021/07/31 04:37:40;;;;;;;18.08;6.15;;;15.40;99.90;;;;;;5094037;28;20043;-56
2021/07/31 04:40:06;;;;;;;13.50;5.43;;;15.40;99.90;;;;;;5093689;28;20047;-55
2021/07/31 04:42:32;;;;;;;14.35;5.80;;;15.50;99.90;;;;;;5093588;28;20052;-55
2021/07/31 04:44:58;;;;;;;20.08;5.57;;;15.50;99.90;;;;;;5093827;28;20044;-55
2021/07/31 04:47:24;;;;;;;20.88;5.80;;;15.50;99.90;;;;;;5093545;28;20071;-55
2021/07/31 04:49:50;;;;;;;19.52;6.05;;;15.50;99.90;;;;;;5093305;28;20036;-55
2021/07/31 04:52:15;;;;;;;18.70;5.20;;;15.50;99.90;;;;;;5093329;28;20032;-54
2021/07/31 04:54:41;;;;;;;21.52;4.90;;;15.60;99.90;;;;;;5093397;28;20044;-55
2021/07/31 04:57:07;;;;;;;14.27;5.30;;;15.60;99.90;;;;;;5093349;28;20422;-56
2021/07/31 04:59:33;;;;;;;18.42;4.80;;;15.60;99.90;;;;;;5093320;28;20397;-55
2021/07/31 05:01:58;;;;;;;12.02;5.32;;;15.60;99.90;;;;;;5093342;28;20040;-55
2021/07/31 05:04:24;;;;;;;20.13;5.05;;;15.70;99.90;;;;;;5093131;28;20047;-55
2021/07/31 05:06:50;;;;;;;15.55;4.72;;;15.70;99.90;;;;;;5093448;28;20074;-55
2021/07/31 05:09:15;;;;;;;17.95;5.68;;;15.70;99.90;;;;;;5093158;28;20044;-55
2021/07/31 05:11:41;;;;;;;18.27;5.45;;;15.70;99.90;;;;;;5093074;28;20482;-55
2021/07/31 05:14:07;;;;;;;18.75;4.88;;;15.70;99.90;;;;;;5093420;28;20056;-55
2021/07/31 05:16:33;;;;;;;15.55;4.30;;;15.70;99.90;;;;;;5093400;28;20052;-55
2021/07/31 05:18:58;;;;;;;20.05;5.65;;;15.70;99.90;;;;;;5092787;28;20094;-55
2021/07/31 05:21:24;;;;;;;21.20;5.03;;;15.70;99.90;;;;;;5092931;28;20043;-55
2021/07/31 05:23:50;;;;;;;20.92;4.93;;;15.80;99.90;;;;;;5092924;28;20040;-55
2021/07/31 05:26:15;;;;;;;20.65;4.55;;;15.90;99.90;;;;;;5092740;28;20119;-55
2021/07/31 05:28:42;;;;;;;22.15;5.00;;;15.90;99.90;;;;;;5092586;28;20039;-55
2021/07/31 05:31:07;;;;;;;23.80;4.95;;;16.00;99.90;;;;;;5092731;28;20047;-55
2021/07/31 05:33:33;;;;;;;23.55;5.45;;;15.90;99.90;;;;;;5092693;28;20028;-55
2021/07/31 05:36:06;;;;;;;26.48;5.60;;;16.00;99.90;;;;;;5091082;28;20127;-55
2021/07/31 05:38:31;;;;;;;24.67;4.93;;;15.90;99.90;;;;;;5092592;28;20047;-55
2021/07/31 05:40:57;;;;;;;32.08;5.03;;;16.00;99.90;;;;;;5092482;28;20046;-55
2021/07/31 05:43:23;;;;;;;18.70;5.13;;;16.00;99.90;;;;;;5092738;28;20462;-55
2021/07/31 05:45:48;;;;;;;22.23;4.85;;;16.10;99.90;;;;;;5092522;28;20374;-55
2021/07/31 05:48:14;;;;;;;22.83;4.65;;;16.10;99.90;;;;;;5092519;28;20130;-55
2021/07/31 05:50:40;;;;;;;28.35;5.68;;;16.10;99.90;;;;;;5092429;28;20040;-55
2021/07/31 05:53:06;;;;;;;16.70;3.97;;;16.20;99.90;;;;;;5092223;28;20168;-55
2021/07/31 05:55:31;;;;;;;21.55;4.95;;;16.20;99.90;;;;;;5092248;28;20119;-55
2021/07/31 05:57:57;;;;;;;23.38;6.28;;;16.30;99.90;;;;;;5092393;28;20040;-55
2021/07/31 06:00:23;;;;;;;20.65;4.63;;;16.30;99.90;;;;;;5091584;28;20048;-55
2021/07/31 06:02:48;;;;;;;21.13;5.13;;;16.40;99.90;;;;;;5092290;28;20043;-55
2021/07/31 06:05:14;;;;;;;28.70;4.80;;;16.40;99.90;;;;;;5092377;28;20082;-55
2021/07/31 06:07:40;;;;;;;26.67;5.47;;;16.40;99.90;;;;;;5090804;28;20137;-55
2021/07/31 06:10:06;;;;;;;23.52;4.60;;;16.40;99.90;;;;;;5092155;28;20477;-55
2021/07/31 06:12:32;;;;;;;28.70;5.28;;;16.40;99.90;;;;;;5092193;28;20047;-55
2021/07/31 06:14:58;;;;;;;24.38;5.78;;;16.40;99.90;;;;;;5092060;28;20036;-55
2021/07/31 06:17:24;;;;;;;23.77;4.70;;;16.50;99.90;;;;;;5092111;28;20040;-55
2021/07/31 06:19:49;;;;;;;21.17;5.03;;;16.50;99.90;;;;;;5091742;28;20040;-54
2021/07/31 06:22:15;;;;;;;27.48;4.80;;;16.50;99.90;;;;;;5091992;28;20467;-54
2021/07/31 06:24:41;;;;;;;22.13;4.32;;;16.60;99.90;;;;;;5091770;28;20044;-55
2021/07/31 06:27:06;;;;;;;27.25;5.38;;;16.60;99.90;;;;;;5091762;28;20387;-54
2021/07/31 06:29:33;;;;;;;18.38;5.38;;;16.60;99.90;;;;;;5103137;28;20135;-54
2021/07/31 06:32:00;;;;;;;27.42;5.53;;;16.70;99.90;;;;;;5108246;28;20036;-55
2021/07/31 06:34:26;;;;;;;22.33;4.40;;;16.70;99.90;;;;;;5108590;28;20032;-55
2021/07/31 06:36:52;;;;;;;24.05;5.18;;;16.80;99.90;;;;;;5107794;28;20035;-55
2021/07/31 06:39:18;;;;;;;17.75;4.20;;;16.80;99.90;;;;;;5096819;28;20148;-55
2021/07/31 06:41:43;;;;;;;18.23;4.20;;;16.70;99.90;;;;;;5099905;28;20040;-54
2021/07/31 06:44:09;;;;;;;22.98;5.22;;;16.60;99.90;;;;;;5101071;28;20040;-55
2021/07/31 06:46:35;;;;;;;16.17;4.03;;;16.60;99.90;;;;;;5106411;28;20088;-56
2021/07/31 06:49:00;;;;;;;20.73;5.03;;;16.50;99.90;;;;;;5110120;28;20052;-56
2021/07/31 06:51:26;;;;;;;15.82;3.83;;;16.50;99.90;;;;;;5111232;28;20122;-56
2021/07/31 06:53:52;;;;;;;18.85;3.92;;;16.60;99.90;;;;;;5111304;28;20067;-55
2021/07/31 06:56:18;;;;;;;17.60;4.00;;;16.80;99.90;;;;;;5111492;28;20047;-55
2021/07/31 06:58:44;;;;;;;16.92;4.00;;;17.10;99.90;;;;;;5111674;28;20039;-56
2021/07/31 07:01:11;;;;;;;19.38;4.95;;;17.20;99.90;;;;;;5111169;28;20040;-55
2021/07/31 07:03:37;;;;;;;18.50;3.92;;;17.20;99.90;;;;;;5111838;28;20085;-56
2021/07/31 07:06:07;;;;;;;19.50;3.90;;;17.20;99.90;;;;;;5111755;28;20104;-55
2021/07/31 07:08:33;;;;;;;14.65;4.10;;;17.00;99.90;;;;;;5111935;28;20047;-55
2021/07/31 07:10:59;;;;;;;18.58;4.55;;;17.00;99.90;;;;;;5112377;28;20070;-55
2021/07/31 07:13:26;;;;;;;18.73;3.85;;;17.00;99.90;;;;;;5115728;28;20036;-56
2021/07/31 07:15:52;;;;;;;17.98;5.10;;;17.00;99.90;;;;;;5115722;28;20481;-56
2021/07/31 07:18:18;;;;;;;16.95;3.92;;;17.00;99.90;;;;;;5115576;28;20054;-56
2021/07/31 07:20:45;;;;;;;13.68;3.15;;;17.20;99.90;;;;;;5115568;28;20123;-56
2021/07/31 07:23:11;;;;;;;14.45;3.10;;;17.20;99.90;;;;;;5107348;28;20047;-56
2021/07/31 07:25:37;;;;;;;11.45;3.30;;;17.20;99.90;;;;;;5115532;28;20500;-56
2021/07/31 07:28:03;;;;;;;16.17;3.58;;;17.20;99.90;;;;;;5115427;28;20039;-55
2021/07/31 07:30:28;;;;;;;12.85;3.05;;;17.20;99.90;;;;;;5097432;28;20142;-56
2021/07/31 07:32:54;;;;;;;11.43;3.05;;;17.10;99.90;;;;;;5115298;28;20088;-56
2021/07/31 07:35:21;;;;;;;12.10;3.20;;;17.30;99.90;;;;;;5115372;28;20074;-56
2021/07/31 07:37:47;;;;;;;14.20;3.50;;;17.60;99.90;;;;;;5115287;28;20068;-56
2021/07/31 07:40:14;;;;;;;12.98;3.00;;;17.80;99.90;;;;;;5115266;28;20059;-56
2021/07/31 07:42:40;;;;;;;13.27;3.53;;;17.90;99.90;;;;;;5115355;28;20431;-56
2021/07/31 07:45:07;;;;;;;11.77;2.72;;;17.80;99.90;;;;;;5115243;28;20076;-56
2021/07/31 07:47:33;;;;;;;12.77;4.55;;;17.80;99.90;;;;;;5115106;28;20546;-56
2021/07/31 07:50:00;;;;;;;12.50;3.10;;;17.80;99.90;;;;;;5115020;28;20055;-56
2021/07/31 07:52:25;;;;;;;13.15;3.53;;;17.80;99.90;;;;;;5114822;28;20071;-55
2021/07/31 07:54:51;;;;;;;19.20;4.00;;;18.00;99.90;;;;;;5114968;28;20074;-56
2021/07/31 07:57:17;;;;;;;11.07;3.00;;;18.20;99.90;;;;;;5115090;28;20040;-55
2021/07/31 07:59:43;;;;;;;11.60;3.03;;;18.20;99.90;;;;;;5114906;28;20554;-56
2021/07/31 08:02:08;;;;;;;13.55;3.17;;;18.20;99.90;;;;;;5114849;28;20054;-56
2021/07/31 08:04:34;;;;;;;10.18;2.60;;;18.10;99.90;;;;;;5115023;28;20039;-55
2021/07/31 08:07:00;;;;;;;14.57;3.78;;;17.90;99.90;;;;;;5114979;28;20042;-55
2021/07/31 08:09:27;;;;;;;14.13;3.05;;;17.80;99.90;;;;;;5114702;28;20488;-56
2021/07/31 08:11:52;;;;;;;14.85;3.88;;;17.70;99.90;;;;;;5114640;28;20496;-55
2021/07/31 08:14:18;;;;;;;16.48;3.72;;;17.60;99.90;;;;;;5114582;28;20048;-55
2021/07/31 08:16:44;;;;;;;12.70;2.80;;;17.60;99.90;;;;;;5114528;28;20050;-56
2021/07/31 08:19:10;;;;;;;11.65;2.70;;;17.50;99.90;;;;;;5114661;28;20044;-55
2021/07/31 08:21:39;;;;;;;14.00;3.00;;;17.50;99.90;;;;;;5114439;28;20040;-55
2021/07/31 08:24:06;;;;;;;;;;;17.50;99.90;;;;;;5114263;28;20374;-56
2021/07/31 08:26:32;;;;;;;6.40;2.33;;;17.40;99.90;;;;;;5114453;28;20002;-56
2021/07/31 08:28:58;;;;;;;9.25;2.67;;;17.40;99.90;;;;;;5114402;28;20459;-55
2021/07/31 08:31:23;;;;;;;11.23;2.85;;;17.30;99.90;;;;;;5114185;28;20134;-56
2021/07/31 08:33:49;;;;;;;7.68;2.30;;;17.30;99.90;;;;;;5114178;28;20067;-55
2021/07/31 08:36:15;;;;;;;6.30;1.90;;;17.30;99.90;;;;;;5114212;28;20032;-56
2021/07/31 08:38:40;;;;;;;13.85;2.65;;;17.30;99.90;;;;;;5114157;28;20405;-56
2021/07/31 08:41:07;;;;;;;9.07;2.40;;;17.30;99.90;;;;;;5114209;28;20075;-56
2021/07/31 08:43:33;;;;;;;10.05;2.60;;;17.60;99.90;;;;;;5114057;28;20062;-55
2021/07/31 08:46:05;;;;;;;9.82;2.60;;;18.10;99.90;;;;;;5113997;28;20630;-56
2021/07/31 08:48:32;;;;;;;10.73;2.83;;;18.60;99.90;;;;;;5113907;28;20039;-56
2021/07/31 08:51:02;;;;;;;8.75;2.22;;;18.90;99.90;;;;;;5113905;28;20039;-56
2021/07/31 08:53:30;;;;;;;7.00;2.10;;;19.30;99.90;;;;;;5113734;28;20055;-55
2021/07/31 08:55:57;;;;;;;11.52;2.08;;;19.80;99.90;;;;;;5113784;28;20040;-56
2021/07/31 08:58:25;;;;;;;8.18;1.90;;;19.90;99.90;;;;;;5113553;28;20051;-55
2021/07/31 09:00:52;;;;;;;;;;;19.90;99.90;;;;;;5114362;28;20450;-56
2021/07/31 09:03:18;;;;;;;8.52;1.90;;;19.60;99.90;;;;;;5113571;28;19915;-56
2021/07/31 09:05:44;;;;;;;5.43;1.52;;;19.40;99.90;;;;;;5113702;28;20114;-56
2021/07/31 09:08:10;;;;;;;5.97;1.88;;;19.20;99.90;;;;;;5113608;28;20044;-56
2021/07/31 09:10:38;;;;;;;6.05;1.85;;;18.90;99.90;;;;;;5113457;28;20046;-56
2021/07/31 09:13:06;;;;;;;4.80;1.55;;;18.80;99.90;;;;;;5113394;28;20051;-56
2021/07/31 09:15:46;;;;;;;4.88;1.27;;;18.70;99.90;;;;;;5113366;28;20508;-56
2021/07/31 09:18:19;;;;;;;5.47;1.88;;;18.60;99.90;;;;;;5113427;28;20042;-56
2021/07/31 09:21:06;;;;;;;6.07;1.85;;;18.50;99.90;;;;;;5113309;28;20071;-56
2021/07/31 09:23:48;;;;;;;5.28;1.90;;;18.60;99.90;;;;;;5113365;28;20044;-56
2021/07/31 09:26:22;;;;;;;11.60;2.10;;;18.80;99.90;;;;;;5113155;28;20554;-56
2021/07/31 09:29:03;;;;;;;6.80;2.35;;;19.00;99.90;;;;;;5113300;28;20047;-56
2021/07/31 09:31:30;;;;;;;7.90;2.28;;;19.10;99.90;;;;;;5112131;28;20048;-56
2021/07/31 09:33:58;;;;;;;7.13;1.75;;;19.20;99.90;;;;;;5112030;27;20039;-56
2021/07/31 09:36:36;;;;;;;9.67;2.30;;;19.20;99.90;;;;;;5100015;28;20106;-56
2021/07/31 09:39:02;;;;;;;7.13;1.70;;;19.20;99.90;;;;;;5106780;28;20321;-56
2021/07/31 09:41:32;;;;;;;7.25;1.67;;;19.10;99.90;;;;;;5106916;28;20043;-56
2021/07/31 09:44:14;;;;;;;5.95;1.80;;;19.10;99.90;;;;;;5108021;28;20032;-56
2021/07/31 09:46:47;;;;;;;9.40;2.67;;;19.10;99.90;;;;;;5109641;28;20073;-55
2021/07/31 09:49:23;;;;;;;8.98;2.22;;;19.10;99.90;;;;;;5108518;28;20084;-56
2021/07/31 09:51:51;;;;;;;7.60;2.00;;;19.00;99.90;;;;;;5107638;28;20043;-56
2021/07/31 09:54:18;;;;;;;9.05;2.15;;;18.90;99.90;;;;;;5109277;28;20078;-56
2021/07/31 09:56:49;;;;;;;8.15;1.85;;;18.90;99.90;;;;;;5106558;28;20051;-55
2021/07/31 09:59:17;;;;;;;9.60;2.35;;;18.90;99.90;;;;;;5112695;28;20123;-56
2021/07/31 10:01:50;;;;;;;12.23;2.07;;;19.00;99.90;;;;;;5112780;28;20040;-55
2021/07/31 10:04:17;;;;;;;9.43;2.08;;;19.00;99.90;;;;;;5112956;28;20329;-56
2021/07/31 10:06:43;;;;;;;8.23;2.25;;;18.90;99.90;;;;;;5113031;28;20048;-55
2021/07/31 10:09:11;;;;;;;9.70;2.05;;;18.90;99.90;;;;;;5094472;28;20049;-55
2021/07/31 10:11:39;;;;;;;8.88;2.30;;;18.90;99.90;;;;;;5112645;28;20372;-56
2021/07/31 10:14:08;;;;;;;11.40;2.20;;;18.90;99.90;;;;;;5112412;28;20825;-55
2021/07/31 10:16:37;;;;;;;8.30;1.98;;;19.10;99.90;;;;;;5108788;28;20100;-56
2021/07/31 10:19:07;;;;;;;10.00;1.85;;;19.20;99.90;;;;;;5116101;27;20054;-56
2021/07/31 10:21:52;;;;;;;8.60;2.40;;;19.20;99.90;;;;;;5115340;27;20067;-56
2021/07/31 10:24:18;;;;;;;9.65;2.78;;;19.20;99.90;;;;;;5102477;27;20045;-56
2021/07/31 10:27:18;;;;;;;11.88;2.45;;;19.30;99.90;;;;;;5115678;27;20036;-56
2021/07/31 10:29:46;;;;;;;9.15;2.10;;;19.40;99.90;;;;;;5118944;27;20061;-56
2021/07/31 10:32:30;;;;;;;8.38;2.35;;;19.50;99.90;;;;;;5117109;27;20404;-55
2021/07/31 10:34:59;;;;;;;5.95;1.90;;;19.60;99.90;;;;;;5117840;28;20059;-56
2021/07/31 10:37:27;;;;;;;11.10;2.90;;;19.60;99.90;;;;;;5116147;28;20099;-55
2021/07/31 10:39:54;;;;;;;9.98;2.30;;;19.50;99.90;;;;;;5119571;28;20461;-55
2021/07/31 10:42:21;;;;;;;7.55;2.55;;;19.50;99.90;;;;;;5114933;28;20119;-56
2021/07/31 10:45:23;;;;;;;8.98;2.10;;;19.60;99.90;;;;;;5098992;28;20123;-56
2021/07/31 10:48:25;;;;;;;7.30;2.35;;;19.70;99.90;;;;;;5115954;28;20081;-56
2021/07/31 10:50:52;;;;;;;7.47;2.67;;;19.80;99.90;;;;;;5116443;28;20042;-56
2021/07/31 10:53:19;;;;;;;7.38;2.28;;;19.80;99.90;;;;;;5116219;28;20433;-56
2021/07/31 10:55:45;;;;;;;11.35;2.50;;;19.70;99.90;;;;;;5116445;28;20042;-55
2021/07/31 10:58:13;;;;;;;6.57;2.30;;;19.60;99.90;;;;;;5116572;28;20047;-56
2021/07/31 11:00:44;;;;;;;6.32;2.17;;;19.40;99.90;;;;;;5116318;28;20104;-55
2021/07/31 11:03:18;;;;;;;10.10;2.28;;;19.40;99.90;;;;;;5116224;28;20040;-56
2021/07/31 11:05:50;;;;;;;9.73;2.17;;;19.40;99.90;;;;;;5115944;28;20040;-55
2021/07/31 11:08:16;;;;;;;12.32;2.50;;;19.30;99.90;;;;;;5108637;28;20430;-56
2021/07/31 11:10:43;;;;;;;5.63;2.80;;;19.20;99.90;;;;;;5116085;28;20486;-55
2021/07/31 11:13:32;;;;;;;5.75;2.42;;;19.20;99.90;;;;;;5115903;28;20032;-55
2021/07/31 11:16:07;;;;;;;9.35;2.97;;;19.20;99.90;;;;;;5116027;28;20130;-56
2021/07/31 11:18:36;;;;;;;10.40;3.45;;;19.20;99.90;;;;;;5115667;28;20039;-55
2021/07/31 11:21:10;;;;;;;7.32;3.33;;;19.00;99.90;;;;;;5097968;28;20051;-55
2021/07/31 11:23:46;;;;;;;12.40;3.33;;;18.90;99.90;;;;;;5115293;28;20035;-56
2021/07/31 11:26:13;;;;;;;8.45;2.65;;;18.90;99.90;;;;;;5116007;28;20050;-56
2021/07/31 11:28:39;;;;;;;5.82;3.45;;;19.00;99.90;;;;;;5115680;28;20067;-56
2021/07/31 11:31:18;;;;;;;7.25;2.70;;;19.10;99.90;;;;;;5115906;28;20552;-55
2021/07/31 11:33:56;;;;;;;;;;;19.10;99.90;;;;;;5116227;28;20046;-56
2021/07/31 11:36:21;;;;;;;8.52;3.00;;;19.20;99.90;;;;;;5115726;28;19965;-56
2021/07/31 11:38:51;;;;;;;7.07;3.35;;;19.40;99.90;;;;;;5115575;28;20071;-56
2021/07/31 11:41:17;;;;;;;6.63;2.50;;;19.40;99.90;;;;;;5113013;28;20080;-56
2021/07/31 11:43:59;;;;;;;9.43;3.47;;;19.40;99.90;;;;;;5113289;28;20039;-55
2021/07/31 11:46:33;;;;;;;5.70;2.80;;;19.40;99.90;;;;;;5113773;28;20058;-56
2021/07/31 11:49:04;;;;;;;6.20;2.83;;;19.50;99.90;;;;;;5114537;28;20168;-56
2021/07/31 11:51:30;;;;;;;10.70;3.15;;;19.50;99.90;;;;;;5115092;28;20494;-55
2021/07/31 11:54:03;;;;;;;8.00;3.10;;;19.50;99.90;;;;;;5114676;28;20052;-56
2021/07/31 11:56:28;;;;;;;5.50;2.67;;;19.50;99.90;;;;;;5115072;28;20047;-56
2021/07/31 11:58:55;;;;;;;4.18;2.28;;;19.70;99.90;;;;;;5113965;28;20488;-55
2021/07/31 12:01:21;;;;;;;6.93;2.70;;;20.00;99.90;;;;;;5114888;28;20040;-55
2021/07/31 12:03:52;;;;;;;6.30;2.70;;;20.30;99.90;;;;;;5114966;28;20043;-56
2021/07/31 12:06:41;;;;;;;6.25;2.08;;;20.50;99.90;;;;;;5114823;28;20118;-55
2021/07/31 12:09:18;;;;;;;5.50;2.50;;;20.60;99.90;;;;;;5114598;28;20503;-56
2021/07/31 12:11:44;;;;;;;4.07;2.10;;;20.70;99.90;;;;;;5114775;28;20043;-56
2021/07/31 12:14:39;;;;;;;4.18;1.95;;;20.80;99.90;;;;;;5114556;28;20059;-56
2021/07/31 12:17:17;;;;;;;4.07;2.00;;;21.10;99.90;;;;;;5114685;28;20515;-56
2021/07/31 12:19:52;;;;;;;5.97;1.95;;;21.00;99.90;;;;;;5114895;28;20556;-55
2021/07/31 12:22:25;;;;;;;6.82;2.08;;;20.70;99.90;;;;;;5114440;28;20052;-56
2021/07/31 12:25:18;;;;;;;6.30;2.28;;;20.60;99.90;;;;;;5114434;28;20568;-55
2021/07/31 12:28:05;;;;;;;6.00;2.22;;;20.40;99.90;;;;;;5114642;28;20127;-56
2021/07/31 12:30:39;;;;;;;8.00;2.13;;;20.30;99.90;;;;;;5114385;28;20040;-55
2021/07/31 12:33:05;;;;;;;4.95;1.90;;;20.40;99.90;;;;;;5114262;28;20047;-55
2021/07/31 12:35:37;;;;;;;4.35;2.03;;;20.40;99.90;;;;;;5095947;28;20496;-55
2021/07/31 12:38:08;;;;;;;6.05;2.25;;;20.50;99.90;;;;;;5114296;28;20071;-55
2021/07/31 12:40:35;;;;;;;4.93;1.70;;;20.70;99.90;;;;;;5114256;28;20050;-56
2021/07/31 12:43:04;;;;;;;2.92;1.80;;;20.80;99.90;;;;;;5114090;28;20047;-55
2021/07/31 12:45:30;;;;;;;5.50;1.85;;;20.80;99.90;;;;;;5113988;28;20191;-55